createdAt,value
2023-04-16T00:00:42.688Z,100716.78
2023-04-16T00:02:44.296Z,100733.19
2023-04-16T00:04:45.942Z,100737.66
2023-04-16T00:06:47.402Z,100750.75
2023-04-16T00:08:49.227Z,100731.00
2023-04-16T00:10:52.401Z,100745.66
2023-04-16T00:12:53.827Z,100738.38
2023-04-16T00:14:55.366Z,100749.94
2023-04-16T00:16:57.072Z,100749.28
2023-04-16T00:18:58.540Z,100754.13
2023-04-16T00:21:00.075Z,100736.88
2023-04-16T00:23:01.579Z,100754.34
2023-04-16T00:25:03.228Z,100754.38
2023-04-16T00:27:04.686Z,100764.78
2023-04-16T00:29:06.338Z,100754.72
2023-04-16T00:31:07.872Z,100751.38
2023-04-16T00:33:09.312Z,100753.16
2023-04-16T00:35:10.859Z,100750.00
2023-04-16T00:37:12.257Z,100763.88
2023-04-16T00:39:13.700Z,100773.25
2023-04-16T00:41:15.313Z,100755.16
2023-04-16T00:43:23.153Z,100754.56
2023-04-16T00:45:24.794Z,100771.38
2023-04-16T00:47:26.386Z,100767.63
2023-04-16T00:49:28.447Z,100768.31
2023-04-16T00:51:31.039Z,100756.06
2023-04-16T00:53:33.161Z,100763.59
2023-04-16T00:55:34.708Z,100772.13
2023-04-16T00:57:36.127Z,100762.34
2023-04-16T00:59:37.719Z,100755.41
2023-04-16T01:01:39.361Z,100749.16
2023-04-16T01:03:44.800Z,100772.41
2023-04-16T01:05:46.671Z,100765.31
2023-04-16T01:07:48.069Z,100775.63
2023-04-16T01:09:49.618Z,100755.41
2023-04-16T01:11:51.107Z,100782.03
2023-04-16T01:13:52.520Z,100763.94
2023-04-16T01:15:54.143Z,100766.69
2023-04-16T01:17:55.683Z,100766.41
2023-04-16T01:20:00.542Z,100788.03
2023-04-16T01:22:02.906Z,100767.94
2023-04-16T01:24:05.125Z,100778.94
2023-04-16T01:26:06.531Z,100778.13
2023-04-16T01:28:08.344Z,100759.75
2023-04-16T01:30:10.214Z,100783.16
2023-04-16T01:32:11.668Z,100775.78
2023-04-16T01:34:13.272Z,100781.47
2023-04-16T01:36:14.767Z,100774.91
2023-04-16T01:38:16.443Z,100775.59
2023-04-16T01:40:18.983Z,100780.28
2023-04-16T01:42:20.640Z,100780.75
2023-04-16T01:44:22.054Z,100789.25
2023-04-16T01:46:34.250Z,100776.44
2023-04-16T01:48:36.066Z,100767.91
2023-04-16T01:50:37.506Z,100779.31
2023-04-16T01:52:39.027Z,100787.41
2023-04-16T01:54:40.566Z,100764.00
2023-04-16T01:56:41.970Z,100783.00
2023-04-16T01:58:43.478Z,100777.56
2023-04-16T02:00:45.145Z,100761.25
2023-04-16T02:02:47.029Z,100785.38
2023-04-16T02:04:48.562Z,100785.53
2023-04-16T02:06:50.242Z,100761.69
2023-04-16T02:08:51.627Z,100789.28
2023-04-16T02:10:53.288Z,100791.94
2023-04-16T02:12:54.851Z,100733.41
2023-04-16T02:14:56.262Z,100788.56
2023-04-16T02:16:57.906Z,100759.47
2023-04-16T02:18:59.401Z,100778.97
2023-04-16T02:21:00.818Z,100806.28
2023-04-16T02:23:02.295Z,100795.69
2023-04-16T02:25:03.952Z,100805.16
2023-04-16T02:27:05.356Z,100789.13
2023-04-16T02:29:07.131Z,100783.16
2023-04-16T02:31:08.863Z,100801.41
2023-04-16T02:33:11.408Z,100803.50
2023-04-16T02:35:12.998Z,100798.50
2023-04-16T02:37:14.631Z,100804.06
2023-04-16T02:39:16.023Z,100797.78
2023-04-16T02:41:17.674Z,100800.69
2023-04-16T02:43:19.252Z,100779.25
2023-04-16T02:45:21.929Z,100785.66
2023-04-16T02:47:23.526Z,100807.78
2023-04-16T02:49:25.040Z,100793.47
2023-04-16T02:51:26.472Z,100771.28
2023-04-16T02:53:27.953Z,100818.56
2023-04-16T02:55:29.493Z,100813.25
2023-04-16T02:57:30.984Z,100807.41
2023-04-16T02:59:32.495Z,100819.53
2023-04-16T03:01:34.150Z,100819.94
2023-04-16T03:03:35.590Z,100816.88
2023-04-16T03:05:39.054Z,100815.31
2023-04-16T03:07:41.855Z,100790.69
2023-04-16T03:09:43.256Z,100822.03
2023-04-16T03:11:44.833Z,100824.41
2023-04-16T03:13:46.308Z,100828.31
2023-04-16T03:15:49.203Z,100807.41
2023-04-16T03:17:50.977Z,100830.13
2023-04-16T03:19:52.532Z,100804.16
2023-04-16T03:21:53.955Z,100827.88
2023-04-16T03:23:55.589Z,100818.25
2023-04-16T03:25:57.172Z,100832.91
2023-04-16T03:27:58.565Z,100833.16
2023-04-16T03:30:00.566Z,100835.81
2023-04-16T03:32:02.007Z,100849.50
2023-04-16T03:34:03.407Z,100847.09
2023-04-16T03:36:05.141Z,100842.63
2023-04-16T03:38:06.555Z,100851.88
2023-04-16T03:40:08.421Z,100850.28
2023-04-16T03:42:09.979Z,100845.69
2023-04-16T03:44:11.446Z,100850.72
2023-04-16T03:46:12.889Z,100856.19
2023-04-16T03:48:15.284Z,100853.66
2023-04-16T03:50:16.774Z,100839.13
2023-04-16T03:52:18.183Z,100840.25
2023-04-16T03:54:22.064Z,100840.78
2023-04-16T03:56:24.480Z,100857.00
2023-04-16T03:58:25.890Z,100870.66
2023-04-16T04:00:27.440Z,100869.41
2023-04-16T04:02:29.110Z,100868.41
2023-04-16T04:04:30.750Z,100867.66
2023-04-16T04:06:32.434Z,100868.19
2023-04-16T04:08:34.027Z,100868.19
2023-04-16T04:10:36.246Z,100873.91
2023-04-16T04:12:37.840Z,100859.59
2023-04-16T04:14:39.539Z,100884.91
2023-04-16T04:16:41.431Z,100880.81
2023-04-16T04:18:44.452Z,100878.81
2023-04-16T04:20:46.219Z,100871.06
2023-04-16T04:22:48.233Z,100891.94
2023-04-16T04:24:49.898Z,100872.38
2023-04-16T04:26:51.478Z,100888.19
2023-04-16T04:28:52.877Z,100884.78
2023-04-16T04:30:54.430Z,100867.19
2023-04-16T04:32:56.036Z,100886.19
2023-04-16T04:34:58.772Z,100893.69
2023-04-16T04:37:00.341Z,100893.41
2023-04-16T04:39:02.004Z,100897.84
2023-04-16T04:41:03.422Z,100897.44
2023-04-16T04:43:04.953Z,100903.81
2023-04-16T04:45:07.058Z,100887.78
2023-04-16T04:47:08.451Z,100898.34
2023-04-16T04:49:10.140Z,100900.84
2023-04-16T04:51:11.977Z,100902.91
2023-04-16T04:53:13.383Z,100904.03
2023-04-16T04:55:15.006Z,100886.44
2023-04-16T04:57:16.493Z,100894.25
2023-04-16T04:59:17.983Z,100891.22
2023-04-16T05:01:19.552Z,100896.22
2023-04-16T05:03:22.003Z,100886.56
2023-04-16T05:05:23.563Z,100898.56
2023-04-16T05:07:25.090Z,100891.19
2023-04-16T05:09:26.772Z,100905.13
2023-04-16T05:11:28.233Z,100911.50
2023-04-16T05:13:29.743Z,100906.97
2023-04-16T05:15:31.322Z,100884.25
2023-04-16T05:17:32.769Z,100901.69
2023-04-16T05:19:34.216Z,100900.69
2023-04-16T05:21:35.775Z,100909.75
2023-04-16T05:23:37.195Z,100925.50
2023-04-16T05:25:38.605Z,100907.81
2023-04-16T05:27:40.665Z,100916.22
2023-04-16T05:29:42.065Z,100924.38
2023-04-16T05:31:43.781Z,100933.03
2023-04-16T05:33:45.469Z,100927.59
2023-04-16T05:35:46.867Z,100933.66
2023-04-16T05:37:48.425Z,100940.88
2023-04-16T05:39:49.911Z,100927.53
2023-04-16T05:41:51.326Z,100932.94
2023-04-16T05:43:52.915Z,100940.38
2023-04-16T05:45:54.545Z,100925.34
2023-04-16T05:47:56.062Z,100952.09
2023-04-16T05:49:57.722Z,100941.81
2023-04-16T05:51:59.319Z,100945.41
2023-04-16T05:54:00.772Z,100897.69
2023-04-16T05:56:02.341Z,100953.41
2023-04-16T05:58:03.827Z,100950.44
2023-04-16T06:00:05.919Z,100933.69
2023-04-16T06:02:07.769Z,100947.56
2023-04-16T06:04:09.534Z,100944.63
2023-04-16T06:06:11.050Z,100947.16
2023-04-16T06:08:12.574Z,100966.31
2023-04-16T06:10:14.060Z,100943.25
2023-04-16T06:12:15.505Z,100961.66
2023-04-16T06:14:17.139Z,100965.59
2023-04-16T06:16:18.659Z,100943.78
2023-04-16T06:18:20.156Z,100967.97
2023-04-16T06:20:21.735Z,100961.41
2023-04-16T06:22:24.156Z,100964.59
2023-04-16T06:24:25.628Z,100974.09
2023-04-16T06:26:27.154Z,100978.44
2023-04-16T06:28:28.722Z,100960.56
2023-04-16T06:30:30.158Z,100979.97
2023-04-16T06:32:31.701Z,100978.16
2023-04-16T06:34:33.196Z,100973.00
2023-04-16T06:36:34.625Z,100972.00
2023-04-16T06:38:37.481Z,100973.69
2023-04-16T06:40:39.145Z,100971.97
2023-04-16T06:42:42.327Z,100977.91
2023-04-16T06:44:45.110Z,100966.72
2023-04-16T06:46:46.624Z,100973.91
2023-04-16T06:48:48.047Z,100987.88
2023-04-16T06:50:49.706Z,100962.22
2023-04-16T06:52:51.358Z,100978.81
2023-04-16T06:54:52.752Z,100973.88
2023-04-16T06:56:54.304Z,100981.09
2023-04-16T06:58:55.788Z,100959.88
2023-04-16T07:00:57.306Z,100967.84
2023-04-16T07:03:01.521Z,100975.66
2023-04-16T07:05:03.427Z,100960.22
2023-04-16T07:07:04.825Z,100980.34
2023-04-16T07:09:06.372Z,100965.53
2023-04-16T07:11:07.907Z,100986.06
2023-04-16T07:13:09.311Z,100984.44
2023-04-16T07:15:11.238Z,100984.66
2023-04-16T07:17:12.704Z,100995.16
2023-04-16T07:19:14.118Z,100988.81
2023-04-16T07:21:15.690Z,100993.69
2023-04-16T07:23:17.350Z,100977.84
2023-04-16T07:25:18.816Z,100973.31
2023-04-16T07:27:20.594Z,100981.84
2023-04-16T07:29:21.981Z,100998.13
2023-04-16T07:31:23.650Z,100995.06
2023-04-16T07:33:25.213Z,100994.31
2023-04-16T07:35:26.991Z,100998.19
2023-04-16T07:37:28.415Z,100997.81
2023-04-16T07:39:30.026Z,100989.16
2023-04-16T07:41:31.595Z,101007.81
2023-04-16T07:43:33.034Z,101007.25
2023-04-16T07:45:34.603Z,101001.22
2023-04-16T07:47:36.115Z,101007.94
2023-04-16T07:49:37.660Z,101006.25
2023-04-16T07:51:39.051Z,101006.69
2023-04-16T07:53:42.379Z,101000.53
2023-04-16T07:55:43.805Z,101013.47
2023-04-16T07:57:45.311Z,101019.16
2023-04-16T07:59:46.795Z,101015.16
2023-04-16T08:01:48.425Z,101019.63
2023-04-16T08:03:50.109Z,101015.91
2023-04-16T08:05:51.787Z,101012.03
2023-04-16T08:07:53.213Z,101016.72
2023-04-16T08:09:55.035Z,101017.78
2023-04-16T08:11:56.464Z,101020.66
2023-04-16T08:13:57.865Z,101016.34
2023-04-16T08:15:59.420Z,101031.56
2023-04-16T08:18:00.904Z,101006.69
2023-04-16T08:20:02.406Z,101015.50
2023-04-16T08:22:04.034Z,101030.25
2023-04-16T08:24:05.621Z,101026.59
2023-04-16T08:26:07.018Z,100980.47
2023-04-16T08:28:08.592Z,101033.38
2023-04-16T08:30:10.193Z,101043.13
2023-04-16T08:32:11.629Z,101031.13
2023-04-16T08:34:13.168Z,101030.44
2023-04-16T08:36:14.942Z,101023.41
2023-04-16T08:38:16.336Z,101054.75
2023-04-16T08:40:17.734Z,101052.75
2023-04-16T08:42:27.174Z,101060.44
2023-04-16T08:44:33.719Z,101046.00
2023-04-16T08:46:37.945Z,101060.72
2023-04-16T08:48:42.133Z,101066.88
2023-04-16T08:50:44.422Z,101070.47
2023-04-16T08:52:50.742Z,101064.97
2023-04-16T08:55:11.328Z,101073.94
2023-04-16T08:57:19.047Z,101073.34
2023-04-16T08:59:21.652Z,101068.31
2023-04-16T09:01:25.353Z,101066.22
2023-04-16T09:03:28.261Z,101075.69
2023-04-16T09:05:30.562Z,101062.13
2023-04-16T09:07:33.384Z,101078.56
2023-04-16T09:09:35.279Z,101074.47
2023-04-16T09:11:37.907Z,101073.84
2023-04-16T09:13:39.464Z,101091.22
2023-04-16T09:15:41.245Z,101090.00
2023-04-16T09:17:42.927Z,101101.16
2023-04-16T09:19:45.499Z,101091.50
2023-04-16T09:21:48.076Z,101106.69
2023-04-16T09:23:49.697Z,101107.22
2023-04-16T09:25:51.256Z,101111.03
2023-04-16T09:27:52.668Z,101095.38
2023-04-16T09:29:54.188Z,101115.09
2023-04-16T09:32:03.565Z,101113.81
2023-04-16T09:34:05.704Z,101111.09
2023-04-16T09:36:07.406Z,101111.72
2023-04-16T09:38:09.516Z,101092.84
2023-04-16T09:40:11.281Z,101115.94
2023-04-16T09:42:14.231Z,101123.38
2023-04-16T09:44:15.734Z,101118.94
2023-04-16T09:46:17.208Z,101123.59
2023-04-16T09:48:36.608Z,101123.19
2023-04-16T09:50:37.996Z,101115.44
2023-04-16T09:52:39.500Z,101132.84
2023-04-16T09:54:51.289Z,101135.97
2023-04-16T09:56:56.980Z,101127.06
2023-04-16T09:59:00.367Z,101126.50
2023-04-16T10:01:03.395Z,101131.88
2023-04-16T10:03:05.873Z,101129.34
2023-04-16T10:05:07.717Z,101135.69
2023-04-16T10:07:09.295Z,101127.91
2023-04-16T10:09:11.023Z,101133.16
2023-04-16T10:11:12.937Z,101133.63
2023-04-16T10:13:14.568Z,101135.34
2023-04-16T10:15:16.185Z,101117.41
2023-04-16T10:17:17.642Z,101138.59
2023-04-16T10:19:19.535Z,101125.56
2023-04-16T10:21:21.311Z,101133.84
2023-04-16T10:23:23.037Z,101138.25
2023-04-16T10:25:25.115Z,101132.03
2023-04-16T10:27:27.123Z,101141.91
2023-04-16T10:29:30.267Z,101134.50
2023-04-16T10:31:32.189Z,101136.09
2023-04-16T10:33:35.538Z,101140.28
2023-04-16T10:35:39.882Z,101141.25
2023-04-16T10:37:41.375Z,101139.13
2023-04-16T10:39:43.068Z,101142.78
2023-04-16T10:41:45.284Z,101124.47
2023-04-16T10:43:48.525Z,101144.69
2023-04-16T10:45:50.032Z,101121.41
2023-04-16T10:47:51.500Z,101135.81
2023-04-16T10:49:53.296Z,101146.34
2023-04-16T10:51:56.752Z,101135.19
2023-04-16T10:54:10.322Z,101150.41
2023-04-16T10:56:12.035Z,101140.38
2023-04-16T10:58:30.180Z,101148.88
2023-04-16T11:00:31.584Z,101149.41
2023-04-16T11:02:33.329Z,101161.09
2023-04-16T11:04:39.709Z,101136.97
2023-04-16T11:06:43.813Z,101151.53
2023-04-16T11:08:53.989Z,101152.72
2023-04-16T11:10:58.615Z,101151.41
2023-04-16T11:13:00.323Z,101147.22
2023-04-16T11:15:06.126Z,101144.72
2023-04-16T11:17:08.180Z,101163.91
2023-04-16T11:19:16.201Z,101158.56
2023-04-16T11:21:18.026Z,101153.38
2023-04-16T11:23:19.612Z,101160.75
2023-04-16T11:25:29.436Z,101162.25
2023-04-16T11:27:31.901Z,101160.41
2023-04-16T11:29:33.645Z,101156.41
2023-04-16T11:31:35.141Z,101156.25
2023-04-16T11:33:37.885Z,101156.56
2023-04-16T11:35:40.252Z,101169.06
2023-04-16T11:37:42.073Z,101157.09
2023-04-16T11:39:51.927Z,101173.63
2023-04-16T11:41:53.861Z,101179.31
2023-04-16T11:43:55.262Z,101174.59
2023-04-16T11:45:57.398Z,101176.28
2023-04-16T11:47:58.975Z,101177.63
2023-04-16T11:50:19.630Z,101167.59
2023-04-16T11:52:32.270Z,101170.25
2023-04-16T11:54:33.768Z,101165.94
2023-04-16T11:56:36.390Z,101173.59
2023-04-16T11:58:37.799Z,101172.94
2023-04-16T12:00:44.624Z,101169.44
2023-04-16T12:02:50.407Z,101168.44
2023-04-16T12:04:52.072Z,101152.56
2023-04-16T12:07:06.739Z,101172.09
2023-04-16T12:09:25.888Z,101168.78
2023-04-16T12:11:47.706Z,101172.28
2023-04-16T12:14:11.750Z,101164.41
2023-04-16T12:16:19.881Z,101172.28
2023-04-16T12:18:24.775Z,101166.41
2023-04-16T12:20:26.330Z,101165.91
2023-04-16T12:22:31.785Z,101170.47
2023-04-16T12:24:35.551Z,101165.75
2023-04-16T12:26:44.506Z,101173.28
2023-04-16T12:28:45.933Z,101158.41
2023-04-16T12:30:50.361Z,101171.28
2023-04-16T12:33:14.059Z,101169.63
2023-04-16T12:35:31.115Z,101172.59
2023-04-16T12:37:32.591Z,101171.63
2023-04-16T12:39:34.069Z,101151.56
2023-04-16T12:41:37.225Z,101177.13
2023-04-16T12:43:38.916Z,101165.91
2023-04-16T12:45:40.619Z,101175.59
2023-04-16T12:47:42.004Z,101158.06
2023-04-16T12:49:43.483Z,101174.72
2023-04-16T12:51:44.955Z,101175.06
2023-04-16T12:53:46.388Z,101178.25
2023-04-16T12:55:48.315Z,101171.06
2023-04-16T12:57:50.922Z,101181.91
2023-04-16T12:59:52.350Z,101176.03
2023-04-16T13:01:53.904Z,101175.41
2023-04-16T13:03:55.894Z,101192.06
2023-04-16T13:05:57.615Z,101194.06
2023-04-16T13:07:59.116Z,101180.97
2023-04-16T13:10:01.046Z,101191.00
2023-04-16T13:12:02.451Z,101187.34
2023-04-16T13:14:03.859Z,101189.50
2023-04-16T13:16:05.504Z,101197.81
2023-04-16T13:18:06.988Z,101187.97
2023-04-16T13:20:08.958Z,101191.59
2023-04-16T13:22:10.539Z,101184.69
2023-04-16T13:24:12.108Z,101171.16
2023-04-16T13:26:13.518Z,101187.59
2023-04-16T13:28:14.902Z,101194.91
2023-04-16T13:30:16.454Z,101187.44
2023-04-16T13:32:17.927Z,101190.59
2023-04-16T13:34:19.716Z,101158.69
2023-04-16T13:36:21.153Z,101190.16
2023-04-16T13:38:22.567Z,101179.13
2023-04-16T13:40:24.078Z,101180.88
2023-04-16T13:42:25.529Z,101193.09
2023-04-16T13:44:26.971Z,101191.06
2023-04-16T13:46:28.525Z,101157.63
2023-04-16T13:48:30.040Z,101190.72
2023-04-16T13:50:31.456Z,101169.78
2023-04-16T13:52:33.072Z,101181.50
2023-04-16T13:54:34.487Z,101192.72
2023-04-16T13:56:36.018Z,101202.75
2023-04-16T13:58:37.878Z,101196.50
2023-04-16T14:00:39.376Z,101198.56
2023-04-16T14:02:42.348Z,101188.56
2023-04-16T14:04:43.964Z,101176.72
2023-04-16T14:06:45.354Z,101194.09
2023-04-16T14:08:47.025Z,101193.75
2023-04-16T14:10:48.668Z,101189.16
2023-04-16T14:12:50.279Z,101197.56
2023-04-16T14:14:52.048Z,101193.31
2023-04-16T14:16:58.784Z,101186.97
2023-04-16T14:19:00.297Z,101197.25
2023-04-16T14:21:01.785Z,101196.88
2023-04-16T14:23:03.196Z,101194.34
2023-04-16T14:25:05.116Z,101199.94
2023-04-16T14:27:06.528Z,101197.72
2023-04-16T14:29:08.122Z,101200.38
2023-04-16T14:31:09.765Z,101195.63
2023-04-16T14:33:11.483Z,101201.38
2023-04-16T14:35:13.040Z,101201.34
2023-04-16T14:37:16.038Z,101180.41
2023-04-16T14:39:17.489Z,101186.88
2023-04-16T14:41:19.153Z,101193.91
2023-04-16T14:43:20.602Z,101198.97
2023-04-16T14:45:22.091Z,101198.81
2023-04-16T14:47:23.788Z,101207.44
2023-04-16T14:49:25.491Z,101207.72
2023-04-16T14:51:26.995Z,101213.97
2023-04-16T14:53:28.678Z,101213.38
2023-04-16T14:55:30.143Z,101214.78
2023-04-16T14:57:31.540Z,101206.94
2023-04-16T14:59:33.143Z,101220.06
2023-04-16T15:01:34.714Z,101223.50
2023-04-16T15:03:36.466Z,101204.13
2023-04-16T15:05:38.030Z,101222.44
2023-04-16T15:07:39.652Z,101218.41
2023-04-16T15:09:41.067Z,101221.84
2023-04-16T15:11:42.554Z,101219.25
2023-04-16T15:13:43.961Z,101224.09
2023-04-16T15:15:45.440Z,101234.03
2023-04-16T15:17:47.240Z,101216.53
2023-04-16T15:19:48.770Z,101228.41
2023-04-16T15:21:50.217Z,101233.06
2023-04-16T15:23:51.847Z,101225.97
2023-04-16T15:25:53.247Z,101242.16
2023-04-16T15:27:56.834Z,101231.56
2023-04-16T15:29:58.376Z,101249.06
2023-04-16T15:31:59.834Z,101243.84
2023-04-16T15:34:01.489Z,101245.75
2023-04-16T15:36:03.213Z,101226.34
2023-04-16T15:38:04.668Z,101253.47
2023-04-16T15:40:07.126Z,101252.25
2023-04-16T15:42:08.746Z,101246.53
2023-04-16T15:44:10.552Z,101245.78
2023-04-16T15:46:12.059Z,101255.41
2023-04-16T15:48:13.577Z,101234.09
2023-04-16T15:50:15.120Z,101240.50
2023-04-16T15:52:16.578Z,101253.81
2023-04-16T15:54:18.193Z,101256.50
2023-04-16T15:56:19.771Z,101234.66
2023-04-16T15:58:21.220Z,101249.69
2023-04-16T16:00:22.731Z,101235.19
2023-04-16T16:02:24.564Z,101236.38
2023-04-16T16:04:26.667Z,101248.25
2023-04-16T16:06:28.288Z,101246.25
2023-04-16T16:08:29.885Z,101263.53
2023-04-16T16:10:31.370Z,101265.44
2023-04-16T16:12:32.885Z,101258.63
2023-04-16T16:14:34.924Z,101272.59
2023-04-16T16:16:36.537Z,101256.16
2023-04-16T16:18:38.242Z,101249.50
2023-04-16T16:20:39.657Z,101260.81
2023-04-16T16:22:41.038Z,101261.22
2023-04-16T16:24:42.957Z,101272.69
2023-04-16T16:26:44.386Z,101274.78
2023-04-16T16:28:45.909Z,101257.84
2023-04-16T16:30:47.772Z,101264.16
2023-04-16T16:32:49.240Z,101271.81
2023-04-16T16:34:50.846Z,101268.34
2023-04-16T16:36:52.296Z,101262.13
2023-04-16T16:38:53.697Z,101231.03
2023-04-16T16:40:55.169Z,101262.91
2023-04-16T16:42:56.812Z,101262.59
2023-04-16T16:44:58.312Z,101253.13
2023-04-16T16:46:59.825Z,101258.13
2023-04-16T16:49:01.428Z,101252.78
2023-04-16T16:51:02.887Z,101258.53
2023-04-16T16:53:04.403Z,101270.50
2023-04-16T16:55:06.610Z,101237.69
2023-04-16T16:57:08.140Z,101269.78
2023-04-16T16:59:10.077Z,101273.31
2023-04-16T17:01:12.137Z,101271.41
2023-04-16T17:03:13.752Z,101266.25
2023-04-16T17:05:15.645Z,101243.47
2023-04-16T17:07:17.184Z,101271.19
2023-04-16T17:09:18.613Z,101276.16
2023-04-16T17:11:20.035Z,101257.44
2023-04-16T17:13:21.496Z,101276.16
2023-04-16T17:15:23.059Z,101249.91
2023-04-16T17:17:24.639Z,101279.91
2023-04-16T17:19:26.162Z,101276.56
2023-04-16T17:21:27.574Z,101267.59
2023-04-16T17:23:28.983Z,101277.78
2023-04-16T17:25:30.575Z,101282.97
2023-04-16T17:27:31.979Z,101284.91
2023-04-16T17:29:33.535Z,101262.41
2023-04-16T17:31:36.679Z,101283.81
2023-04-16T17:33:38.202Z,101255.44
2023-04-16T17:35:40.284Z,101277.09
2023-04-16T17:37:41.798Z,101259.59
2023-04-16T17:39:43.212Z,101273.03
2023-04-16T17:41:45.031Z,101282.94
2023-04-16T17:43:50.232Z,101278.63
2023-04-16T17:45:51.638Z,101295.25
2023-04-16T17:47:54.295Z,101286.16
2023-04-16T17:49:55.923Z,101289.09
2023-04-16T17:51:57.436Z,101274.84
2023-04-16T17:53:59.004Z,101292.88
2023-04-16T17:56:00.610Z,101291.88
2023-04-16T17:58:02.026Z,101290.47
2023-04-16T18:00:04.258Z,101298.00
2023-04-16T18:02:06.052Z,101286.25
2023-04-16T18:04:07.928Z,101277.22
2023-04-16T18:06:09.574Z,101277.38
2023-04-16T18:08:10.967Z,101303.50
2023-04-16T18:10:12.365Z,101289.53
2023-04-16T18:12:13.819Z,101300.78
2023-04-16T18:14:15.436Z,101303.66
2023-04-16T18:16:17.005Z,101308.66
2023-04-16T18:18:18.536Z,101295.78
2023-04-16T18:20:20.186Z,101315.53
2023-04-16T18:22:21.580Z,101306.81
2023-04-16T18:24:23.063Z,101324.47
2023-04-16T18:26:25.356Z,101308.63
2023-04-16T18:28:26.952Z,101326.56
2023-04-16T18:30:28.396Z,101331.16
2023-04-16T18:32:31.247Z,101337.34
2023-04-16T18:34:32.914Z,101325.59
2023-04-16T18:36:34.393Z,101344.31
2023-04-16T18:38:41.424Z,101342.00
2023-04-16T18:40:47.929Z,101338.66
2023-04-16T18:42:49.413Z,101346.16
2023-04-16T18:44:54.297Z,101352.44
2023-04-16T18:46:55.833Z,101354.50
2023-04-16T18:48:57.411Z,101356.44
2023-04-16T18:50:59.045Z,101348.13
2023-04-16T18:53:00.443Z,101354.69
2023-04-16T18:55:02.152Z,101349.63
2023-04-16T18:57:03.689Z,101346.16
2023-04-16T18:59:05.090Z,101366.44
2023-04-16T19:01:06.784Z,101368.13
2023-04-16T19:03:08.343Z,101360.16
2023-04-16T19:05:09.898Z,101348.53
2023-04-16T19:07:11.403Z,101361.53
2023-04-16T19:09:13.167Z,101361.19
2023-04-16T19:11:14.705Z,101345.81
2023-04-16T19:13:16.439Z,101372.81
2023-04-16T19:15:18.050Z,101343.94
2023-04-16T19:17:19.485Z,101345.88
2023-04-16T19:19:21.094Z,101359.25
2023-04-16T19:21:22.874Z,101369.75
2023-04-16T19:23:24.258Z,101346.19
2023-04-16T19:25:25.732Z,101363.47
2023-04-16T19:27:29.047Z,101366.13
2023-04-16T19:29:33.920Z,101367.34
2023-04-16T19:31:35.580Z,101368.28
2023-04-16T19:33:37.162Z,101371.44
2023-04-16T19:35:38.588Z,101371.00
2023-04-16T19:37:40.072Z,101369.44
2023-04-16T19:39:41.548Z,101366.84
2023-04-16T19:41:42.972Z,101371.53
2023-04-16T19:43:44.469Z,101364.53
2023-04-16T19:45:47.911Z,101366.78
2023-04-16T19:47:49.318Z,101379.47
2023-04-16T19:49:50.984Z,101353.59
2023-04-16T19:51:52.456Z,101373.34
2023-04-16T19:53:53.980Z,101377.06
2023-04-16T19:55:57.258Z,101380.78
2023-04-16T19:57:58.710Z,101350.28
2023-04-16T20:00:00.396Z,101367.06
2023-04-16T20:02:01.929Z,101375.22
2023-04-16T20:04:03.390Z,101372.00
2023-04-16T20:06:04.955Z,101382.53
2023-04-16T20:08:06.516Z,101380.31
2023-04-16T20:10:08.362Z,101378.97
2023-04-16T20:12:09.784Z,101369.91
2023-04-16T20:14:11.208Z,101382.53
2023-04-16T20:16:12.851Z,101385.88
2023-04-16T20:18:14.270Z,101370.53
2023-04-16T20:20:15.736Z,101361.50
2023-04-16T20:22:17.430Z,101379.75
2023-04-16T20:24:18.878Z,101348.69
2023-04-16T20:26:20.403Z,101373.16
2023-04-16T20:28:22.015Z,101349.03
2023-04-16T20:30:23.444Z,101389.41
2023-04-16T20:32:26.610Z,101381.47
2023-04-16T20:34:29.015Z,101373.78
2023-04-16T20:36:30.455Z,101388.00
2023-04-16T20:38:31.919Z,101373.69
2023-04-16T20:40:33.442Z,101391.84
2023-04-16T20:42:35.266Z,101397.28
2023-04-16T20:44:38.090Z,101391.16
2023-04-16T20:46:39.690Z,101398.75
2023-04-16T20:48:41.126Z,101408.63
2023-04-16T20:50:42.692Z,101414.16
2023-04-16T20:52:44.587Z,101391.06
2023-04-16T20:54:45.994Z,101405.97
2023-04-16T20:56:47.462Z,101412.00
2023-04-16T20:58:48.934Z,101420.06
2023-04-16T21:00:51.664Z,101400.56
2023-04-16T21:02:53.381Z,101411.50
2023-04-16T21:04:55.076Z,101391.19
2023-04-16T21:06:56.648Z,101408.97
2023-04-16T21:08:58.130Z,101410.19
2023-04-16T21:10:59.681Z,101412.34
2023-04-16T21:13:01.116Z,101418.47
2023-04-16T21:15:03.832Z,101413.69
2023-04-16T21:17:05.418Z,101395.88
2023-04-16T21:19:06.868Z,101399.09
2023-04-16T21:21:08.388Z,101397.16
2023-04-16T21:23:09.957Z,101414.50
2023-04-16T21:25:11.414Z,101416.44
2023-04-16T21:27:13.003Z,101418.25
2023-04-16T21:29:14.718Z,101395.47
2023-04-16T21:31:16.616Z,101387.41
2023-04-16T21:33:18.365Z,101418.81
2023-04-16T21:35:19.904Z,101412.00
2023-04-16T21:37:21.305Z,101409.19
2023-04-16T21:39:22.788Z,101421.34
2023-04-16T21:41:24.215Z,101418.56
2023-04-16T21:43:26.097Z,101420.03
2023-04-16T21:45:28.445Z,101419.06
2023-04-16T21:47:31.500Z,101413.06
2023-04-16T21:49:32.938Z,101418.69
2023-04-16T21:51:34.623Z,101422.88
2023-04-16T21:53:36.114Z,101407.75
2023-04-16T21:55:37.580Z,101424.84
2023-04-16T21:57:39.960Z,101426.16
2023-04-16T21:59:41.515Z,101405.97
2023-04-16T22:01:42.959Z,101425.22
2023-04-16T22:03:44.789Z,101421.09
2023-04-16T22:05:46.522Z,101409.28
2023-04-16T22:07:47.942Z,101396.59
2023-04-16T22:09:49.713Z,101412.31
2023-04-16T22:11:51.432Z,101416.53
2023-04-16T22:13:52.821Z,101417.72
2023-04-16T22:15:55.055Z,101415.78
2023-04-16T22:17:56.795Z,101385.16
2023-04-16T22:19:58.255Z,101414.88
2023-04-16T22:21:59.642Z,101414.81
2023-04-16T22:24:01.060Z,101409.06
2023-04-16T22:26:02.475Z,101394.25
2023-04-16T22:28:03.907Z,101402.72
2023-04-16T22:30:07.352Z,101417.03
2023-04-16T22:32:08.790Z,101382.25
2023-04-16T22:34:10.354Z,101401.06
2023-04-16T22:36:11.845Z,101410.22
2023-04-16T22:38:13.267Z,101400.91
2023-04-16T22:40:14.965Z,101410.53
2023-04-16T22:42:16.601Z,101421.50
2023-04-16T22:44:17.984Z,101408.31
2023-04-16T22:46:19.655Z,101411.50
2023-04-16T22:48:21.168Z,101416.13
2023-04-16T22:50:22.557Z,101396.84
2023-04-16T22:52:24.020Z,101405.75
2023-04-16T22:54:31.268Z,101417.75
2023-04-16T22:56:33.177Z,101404.03
2023-04-16T22:58:34.815Z,101426.78
2023-04-16T23:00:36.241Z,101427.38
2023-04-16T23:02:37.712Z,101425.88
2023-04-16T23:04:39.455Z,101420.38
2023-04-16T23:06:40.947Z,101393.19
2023-04-16T23:08:42.392Z,101411.25
2023-04-16T23:10:44.065Z,101419.94
2023-04-16T23:12:45.629Z,101386.63
2023-04-16T23:14:47.054Z,101394.47